Time;durP1;ratioP1;P1;durP2;ratioP2;P2;SDS_P1;SDS_P2;PMS_P1;PMS_P2;Temp;Humidity;BMP_temperature;BMP_pressure;BME280_temperature;BME280_humidity;BME280_pressure;Samples;Min_cycle;Max_cycle;Signal;HPM_P1;HPM_P2
2023/03/03 00:00:13;;;;;;;;;;;22.00;72.20;;;;;;1844109;78;20205;-86
2023/03/03 00:02:41;;;;;;;;;;;22.00;72.10;;;;;;1794397;79;20646;-87
2023/03/03 00:05:14;;;;;;;;;;;22.10;72.50;;;;;;1792446;79;20182;-87
2023/03/03 00:07:46;;;;;;;;;;;22.10;72.30;;;;;;1806395;78;20200;-87
2023/03/03 00:10:16;;;;;;;;;;;22.00;72.60;;;;;;1804074;79;20202;-86
2023/03/03 00:12:47;;;;;;;;;;;22.10;72.30;;;;;;1794701;79;20173;-87
2023/03/03 00:15:21;;;;;;;;;;;22.10;72.50;;;;;;1792624;79;20208;-86
2023/03/03 00:17:52;;;;;;;;;;;22.00;72.50;;;;;;1770687;79;20226;-88
2023/03/03 00:20:33;;;;;;;;;;;22.10;72.60;;;;;;1783371;79;20231;-87
2023/03/03 00:23:06;;;;;;;;;;;22.10;72.80;;;;;;1773431;78;20304;-88
2023/03/03 00:25:37;;;;;;;;;;;22.10;72.70;;;;;;1744836;81;20226;-88
2023/03/03 00:28:18;;;;;;;;;;;22.20;72.80;;;;;;1763516;80;20196;-87
2023/03/03 00:30:47;;;;;;;;;;;22.20;71.60;;;;;;1707984;83;20237;-86
2023/03/03 00:33:21;;;;;;;;;;;22.30;72.10;;;;;;1822855;79;20138;-88
2023/03/03 00:35:54;;;;;;;;;;;22.30;71.50;;;;;;1819613;79;20415;-88
2023/03/03 00:38:27;;;;;;;;;;;22.30;72.00;;;;;;1823298;79;20133;-88
2023/03/03 00:51:28;;;;;;;;;;;22.60;70.90;;;;;;1654272;86;20146;-87
2023/03/03 00:57:20;;;;;;;;;;;22.60;69.60;;;;;;1710058;82;20272;-76
2023/03/03 00:59:51;;;;;;;;;;;22.70;70.60;;;;;;1710528;82;20243;-77
2023/03/03 01:02:22;;;;;;;;;;;22.70;70.40;;;;;;1771373;77;20270;-74
2023/03/03 01:04:55;;;;;;;;;;;22.70;70.60;;;;;;1810064;77;20310;-77
2023/03/03 01:07:24;;;;;;;;;;;22.70;71.00;;;;;;1817231;77;20190;-78
2023/03/03 01:16:14;;;;;;;;;;;22.80;70.80;;;;;;1756923;80;20278;-77
2023/03/03 01:18:44;;;;;;;;;;;22.80;70.00;;;;;;1745270;80;20205;-78
2023/03/03 01:21:14;;;;;;;;;;;22.80;70.30;;;;;;1805929;77;20212;-79
2023/03/03 01:23:45;;;;;;;;;;;22.80;70.40;;;;;;1809520;78;20272;-79
2023/03/03 01:26:15;;;;;;;;;;;22.90;71.10;;;;;;1807836;78;20278;-82
2023/03/03 01:28:45;;;;;;;;;;;22.90;70.70;;;;;;1810674;78;20172;-79
2023/03/03 01:31:15;;;;;;;;;;;22.90;70.40;;;;;;1799935;79;20246;-79
2023/03/03 01:33:46;;;;;;;;;;;22.90;70.30;;;;;;1809736;78;20291;-77
2023/03/03 01:36:16;;;;;;;;;;;22.90;70.10;;;;;;1800003;79;20205;-80
2023/03/03 01:38:46;;;;;;;;;;;23.00;70.00;;;;;;1796481;79;20187;-75
2023/03/03 01:41:16;;;;;;;;;;;23.00;69.70;;;;;;1801032;79;20307;-79
2023/03/03 01:43:50;;;;;;;;;;;23.00;69.60;;;;;;1799759;79;20222;-77
2023/03/03 01:46:31;;;;;;;;;;;23.10;69.40;;;;;;1812429;78;20192;-77
2023/03/03 01:49:04;;;;;;;;;;;23.20;69.40;;;;;;1823260;78;20542;-77
2023/03/03 01:51:50;;;;;;;;;;;23.20;69.10;;;;;;1803870;78;20208;-75
2023/03/03 01:55:09;;;;;;;;;;;;;;;;;;;;;
2023/03/03 01:58:06;;;;;;;;;;;23.30;68.00;;;;;;1663204;84;20297;-78
2023/03/03 02:00:44;;;;;;;;;;;23.30;68.20;;;;;;1670161;83;20177;-78
2023/03/03 02:06:32;;;;;;;;;;;23.40;68.30;;;;;;1585855;87;20268;-81
2023/03/03 02:09:09;;;;;;;;;;;23.40;68.10;;;;;;1661141;83;20563;-79
2023/03/03 02:11:40;;;;;;;;;;;23.50;67.90;;;;;;1704665;82;20839;-77
2023/03/03 02:17:33;;;;;;;;;;;23.60;67.60;;;;;;1705080;82;20339;-76
2023/03/03 02:20:09;;;;;;;;;;;23.60;67.60;;;;;;1648766;85;20255;-76
2023/03/03 02:23:01;;;;;;;;;;;23.70;67.40;;;;;;1712104;81;20303;-77
2023/03/03 02:25:41;;;;;;;;;;;23.70;67.40;;;;;;1732292;81;20468;-77
2023/03/03 02:28:11;;;;;;;;;;;23.70;67.60;;;;;;1729590;81;20290;-77
2023/03/03 02:30:47;;;;;;;;;;;23.70;67.50;;;;;;1728170;81;20275;-73
2023/03/03 02:36:49;;;;;;;;;;;23.80;67.80;;;;;;1806097;77;20793;-77
2023/03/03 02:39:23;;;;;;;;;;;23.90;67.30;;;;;;1820789;77;20242;-75
2023/03/03 02:45:42;;;;;;;;;;;24.10;67.10;;;;;;1793594;80;20437;-76
2023/03/03 02:51:46;;;;;;;;;;;24.20;66.50;;;;;;1777970;80;20180;-79
2023/03/03 02:54:23;;;;;;;;;;;24.20;66.00;;;;;;1764824;79;20460;-79
2023/03/03 02:57:15;;;;;;;;;;;24.30;66.10;;;;;;1764914;79;20257;-76
2023/03/03 03:00:08;;;;;;;;;;;24.30;66.40;;;;;;1808475;77;20125;-78
2023/03/03 03:02:34;;;;;;;;;;;24.40;66.40;;;;;;1818946;78;20129;-78
2023/03/03 03:05:07;;;;;;;;;;;24.50;66.20;;;;;;1812763;77;20187;-77
2023/03/03 03:07:36;;;;;;;;;;;24.60;65.60;;;;;;1817248;77;20250;-77
2023/03/03 03:10:06;;;;;;;;;;;24.70;65.00;;;;;;1832929;77;20605;-76
2023/03/03 03:12:36;;;;;;;;;;;24.80;63.90;;;;;;1826588;77;20199;-76
2023/03/03 03:15:08;;;;;;;;;;;24.90;63.70;;;;;;1824868;77;20375;-74
2023/03/03 03:17:38;;;;;;;;;;;25.00;63.90;;;;;;1812142;77;20218;-76
2023/03/03 03:20:14;;;;;;;;;;;25.10;63.20;;;;;;1805926;77;20220;-75
2023/03/03 03:22:43;;;;;;;;;;;25.30;62.20;;;;;;1800077;78;20238;-76
2023/03/03 03:25:14;;;;;;;;;;;25.40;61.70;;;;;;1793695;78;20167;-75
2023/03/03 03:27:44;;;;;;;;;;;25.50;61.30;;;;;;1802773;78;20348;-74
2023/03/03 03:30:23;;;;;;;;;;;25.60;60.40;;;;;;1790812;78;20609;-75
2023/03/03 03:32:54;;;;;;;;;;;25.70;60.40;;;;;;1782564;78;20271;-76
2023/03/03 03:35:23;;;;;;;;;;;25.80;60.80;;;;;;1797941;78;20127;-77
2023/03/03 03:37:54;;;;;;;;;;;25.90;60.40;;;;;;1791202;78;20123;-75
2023/03/03 03:40:27;;;;;;;;;;;25.90;60.00;;;;;;1791359;78;20393;-75
2023/03/03 03:43:00;;;;;;;;;;;26.00;59.50;;;;;;1797958;78;20316;-74
2023/03/03 03:45:31;;;;;;;;;;;26.10;59.10;;;;;;1788316;78;20593;-75
2023/03/03 03:48:02;;;;;;;;;;;26.30;58.70;;;;;;1783914;78;20191;-75
2023/03/03 03:50:32;;;;;;;;;;;26.40;56.90;;;;;;1797791;78;20189;-74
2023/03/03 03:53:02;;;;;;;;;;;26.50;56.40;;;;;;1794917;78;20274;-76
2023/03/03 03:55:32;;;;;;;;;;;26.60;56.40;;;;;;1798878;78;20411;-74
2023/03/03 03:58:02;;;;;;;;;;;26.70;56.50;;;;;;1787923;78;20228;-75
2023/03/03 04:00:32;;;;;;;;;;;26.80;55.90;;;;;;1791627;78;20328;-76
2023/03/03 04:03:02;;;;;;;;;;;26.90;56.20;;;;;;1791552;78;20259;-75
2023/03/03 04:05:33;;;;;;;;;;;27.10;56.70;;;;;;1793128;77;20215;-75
2023/03/03 04:08:03;;;;;;;;;;;27.10;56.50;;;;;;1796412;78;20582;-78
2023/03/03 04:10:33;;;;;;;;;;;27.20;56.00;;;;;;1801603;78;20180;-76
2023/03/03 04:13:03;;;;;;;;;;;27.30;54.90;;;;;;1796779;78;20198;-74
2023/03/03 04:15:48;;;;;;;;;;;27.30;55.40;;;;;;1800300;78;20219;-77
2023/03/03 04:18:20;;;;;;;;;;;27.40;54.00;;;;;;1795300;78;20250;-76
2023/03/03 04:20:51;;;;;;;;;;;27.50;54.10;;;;;;1802047;78;20403;-75
2023/03/03 04:23:32;;;;;;;;;;;27.60;55.00;;;;;;1806322;77;20441;-77
2023/03/03 04:26:11;;;;;;;;;;;27.60;54.00;;;;;;1810190;77;20609;-78
2023/03/03 04:28:46;;;;;;;;;;;27.70;53.60;;;;;;1817758;77;20375;-76
2023/03/03 04:34:25;;;;;;;;;;;27.90;53.80;;;;;;1818370;77;20250;-78
2023/03/03 04:36:55;;;;;;;;;;;28.00;53.90;;;;;;1790323;79;20169;-79
2023/03/03 04:39:26;;;;;;;;;;;28.00;53.10;;;;;;1820787;77;20172;-76
2023/03/03 04:41:56;;;;;;;;;;;28.10;52.90;;;;;;1819281;77;20190;-78
2023/03/03 04:44:25;;;;;;;;;;;28.10;52.90;;;;;;1831119;76;20174;-76
2023/03/03 04:46:56;;;;;;;;;;;28.20;52.50;;;;;;1813320;77;20133;-75
2023/03/03 04:49:26;;;;;;;;;;;28.30;52.50;;;;;;1818710;77;20224;-77
2023/03/03 04:51:57;;;;;;;;;;;28.30;52.30;;;;;;1820295;77;20206;-77
2023/03/03 04:54:28;;;;;;;;;;;28.40;52.70;;;;;;1820758;77;20212;-76
2023/03/03 04:56:58;;;;;;;;;;;28.50;53.10;;;;;;1827698;77;20169;-78
2023/03/03 04:59:28;;;;;;;;;;;28.50;53.00;;;;;;1825545;77;20418;-76
2023/03/03 05:01:59;;;;;;;;;;;28.60;52.50;;;;;;1827213;77;20452;-76
2023/03/03 05:04:29;;;;;;;;;;;28.70;53.20;;;;;;1816562;77;20201;-78
2023/03/03 05:06:59;;;;;;;;;;;28.70;52.80;;;;;;1818967;77;20267;-75
2023/03/03 05:09:29;;;;;;;;;;;28.80;51.40;;;;;;1821853;77;20181;-76
2023/03/03 05:11:59;;;;;;;;;;;28.80;53.40;;;;;;1824358;77;20224;-77
2023/03/03 05:14:30;;;;;;;;;;;28.80;51.40;;;;;;1821482;77;20241;-74
2023/03/03 05:17:00;;;;;;;;;;;28.90;51.50;;;;;;1805753;77;20256;-75
2023/03/03 05:19:30;;;;;;;;;;;29.00;51.40;;;;;;1809810;77;20531;-74
2023/03/03 05:22:00;;;;;;;;;;;29.00;53.20;;;;;;1816371;77;20494;-76
2023/03/03 05:24:31;;;;;;;;;;;29.00;51.70;;;;;;1812945;77;20184;-75
2023/03/03 05:27:02;;;;;;;;;;;29.10;51.60;;;;;;1781961;79;20586;-73
2023/03/03 05:29:32;;;;;;;;;;;29.10;49.70;;;;;;1808009;77;20217;-74
2023/03/03 05:32:02;;;;;;;;;;;29.20;50.90;;;;;;1787964;78;20187;-74
2023/03/03 05:34:32;;;;;;;;;;;29.20;50.60;;;;;;1822868;78;20229;-75
2023/03/03 05:37:08;;;;;;;;;;;29.30;51.10;;;;;;1819430;78;20514;-74
2023/03/03 05:39:38;;;;;;;;;;;29.30;51.10;;;;;;1832588;78;20186;-73
2023/03/03 05:42:09;;;;;;;;;;;29.40;50.90;;;;;;1827582;78;20208;-75
2023/03/03 05:44:38;;;;;;;;;;;29.40;50.00;;;;;;1831072;78;20309;-75
2023/03/03 05:47:08;;;;;;;;;;;29.40;49.70;;;;;;1826217;78;20225;-76
2023/03/03 05:49:39;;;;;;;;;;;29.50;50.10;;;;;;1823672;78;20168;-74
2023/03/03 05:58:29;;;;;;;;;;;29.60;49.70;;;;;;1827804;75;20180;-75
2023/03/03 06:00:59;;;;;;;;;;;29.60;50.70;;;;;;1825680;78;20197;-76
2023/03/03 06:03:29;;;;;;;;;;;29.60;50.70;;;;;;1819779;78;20221;-75
2023/03/03 06:05:59;;;;;;;;;;;29.60;50.70;;;;;;1810578;77;20192;-77
2023/03/03 06:08:31;;;;;;;;;;;29.70;50.10;;;;;;1808684;78;20275;-76
2023/03/03 06:13:52;;;;;;;;;;;29.70;51.20;;;;;;1862287;75;20333;-76
2023/03/03 06:16:22;;;;;;;;;;;29.80;50.70;;;;;;1844498;76;20194;-73
2023/03/03 06:18:52;;;;;;;;;;;29.80;49.50;;;;;;1850231;76;20761;-75
2023/03/03 06:21:23;;;;;;;;;;;29.90;51.00;;;;;;1847975;75;20234;-76
2023/03/03 06:23:53;;;;;;;;;;;30.00;50.50;;;;;;1849523;75;20433;-77
2023/03/03 06:26:23;;;;;;;;;;;30.00;49.30;;;;;;1842352;75;20175;-76
2023/03/03 06:28:54;;;;;;;;;;;30.10;49.90;;;;;;1842014;75;20222;-76
2023/03/03 06:31:25;;;;;;;;;;;30.00;50.70;;;;;;1838083;75;20186;-77
2023/03/03 06:33:55;;;;;;;;;;;30.00;48.80;;;;;;1844807;75;20190;-76
2023/03/03 06:36:26;;;;;;;;;;;30.00;48.70;;;;;;1844763;75;20583;-75
2023/03/03 06:38:56;;;;;;;;;;;30.00;50.30;;;;;;1838689;75;20296;-78
2023/03/03 06:41:26;;;;;;;;;;;30.00;49.20;;;;;;1840185;76;20290;-76
2023/03/03 06:43:57;;;;;;;;;;;30.00;49.40;;;;;;1849175;76;20219;-75
2023/03/03 06:46:27;;;;;;;;;;;30.00;50.10;;;;;;1857280;75;20261;-76
2023/03/03 06:48:57;;;;;;;;;;;30.00;48.00;;;;;;1887810;73;20526;-76
2023/03/03 06:51:34;;;;;;;;;;;30.00;47.70;;;;;;1889324;73;20589;-76
2023/03/03 06:54:08;;;;;;;;;;;30.10;48.60;;;;;;1895174;73;20523;-77
2023/03/03 06:56:38;;;;;;;;;;;30.10;49.50;;;;;;1892920;73;20262;-78
2023/03/03 06:59:12;;;;;;;;;;;30.10;48.70;;;;;;1902527;73;20246;-75
2023/03/03 07:01:43;;;;;;;;;;;30.20;48.60;;;;;;1889363;73;20163;-79
2023/03/03 07:04:17;;;;;;;;;;;30.10;48.00;;;;;;1898367;73;20221;-77
2023/03/03 07:06:47;;;;;;;;;;;30.10;49.70;;;;;;1901916;73;20484;-77
2023/03/03 07:09:20;;;;;;;;;;;30.10;48.70;;;;;;1911747;73;20175;-78
2023/03/03 07:11:54;;;;;;;;;;;30.10;48.40;;;;;;1905556;73;20164;-77
2023/03/03 07:14:25;;;;;;;;;;;30.10;47.40;;;;;;1894131;73;20239;-76
2023/03/03 07:17:00;;;;;;;;;;;30.20;48.50;;;;;;1911001;73;20203;-74
2023/03/03 07:19:36;;;;;;;;;;;30.20;47.70;;;;;;1897907;73;20598;-77
2023/03/03 07:22:07;;;;;;;;;;;30.20;48.40;;;;;;1889215;73;20309;-76
2023/03/03 07:24:37;;;;;;;;;;;30.10;48.20;;;;;;1895557;73;20225;-77
2023/03/03 07:27:08;;;;;;;;;;;30.20;48.50;;;;;;1892979;73;20578;-74
2023/03/03 07:29:46;;;;;;;;;;;30.10;47.90;;;;;;1887922;73;20215;-77
2023/03/03 07:32:23;;;;;;;;;;;30.10;47.50;;;;;;1890961;73;20589;-75
2023/03/03 07:34:54;;;;;;;;;;;30.10;46.30;;;;;;1889126;73;20187;-75
2023/03/03 07:37:32;;;;;;;;;;;30.10;46.10;;;;;;1888163;73;20273;-77
2023/03/03 07:40:04;;;;;;;;;;;30.10;46.90;;;;;;1897379;73;20296;-76
2023/03/03 07:42:35;;;;;;;;;;;30.10;48.80;;;;;;1903535;73;20184;-76
2023/03/03 07:45:06;;;;;;;;;;;30.10;47.00;;;;;;1908580;73;20209;-75
2023/03/03 07:47:44;;;;;;;;;;;30.10;46.00;;;;;;1904214;73;20833;-76
2023/03/03 07:50:16;;;;;;;;;;;30.20;45.60;;;;;;1848433;75;20663;-76
2023/03/03 07:53:02;;;;;;;;;;;30.20;46.00;;;;;;1848864;76;20188;-75
2023/03/03 07:55:36;;;;;;;;;;;30.10;45.50;;;;;;1850445;75;20245;-75
2023/03/03 07:58:40;;;;;;;;;;;30.10;44.70;;;;;;1842381;75;20238;-75
2023/03/03 08:01:27;;;;;;;;;;;30.10;44.50;;;;;;1850136;76;20221;-78
2023/03/03 08:03:57;;;;;;;;;;;30.10;44.80;;;;;;1838942;77;20465;-76
2023/03/03 08:06:28;;;;;;;;;;;30.10;47.30;;;;;;1840318;77;20189;-75
2023/03/03 08:09:02;;;;;;;;;;;30.10;44.70;;;;;;1839616;76;20296;-76
2023/03/03 08:11:35;;;;;;;;;;;30.10;44.30;;;;;;1854524;75;20183;-75
2023/03/03 08:14:07;;;;;;;;;;;30.10;45.20;;;;;;1852312;75;20419;-77
2023/03/03 08:16:38;;;;;;;;;;;30.10;45.10;;;;;;1856940;76;20401;-74
2023/03/03 08:19:09;;;;;;;;;;;30.10;44.90;;;;;;1858308;75;20179;-76
2023/03/03 08:21:39;;;;;;;;;;;30.10;44.10;;;;;;1849090;75;20223;-76
2023/03/03 08:24:09;;;;;;;;;;;30.10;45.20;;;;;;1896081;73;20250;-88
2023/03/03 08:26:43;;;;;;;;;;;30.10;45.70;;;;;;1873227;75;20235;-89
2023/03/03 08:32:31;;;;;;;;;;;30.00;45.50;;;;;;1868367;76;20104;-91
2023/03/03 08:35:18;;;;;;;;;;;30.00;45.30;;;;;;1890148;76;20092;-90
2023/03/03 08:37:48;;;;;;;;;;;30.00;46.70;;;;;;1854818;76;20218;-89
2023/03/03 08:40:18;;;;;;;;;;;30.00;45.30;;;;;;1859045;77;20129;-88
2023/03/03 08:42:48;;;;;;;;;;;30.10;46.20;;;;;;1855704;76;20163;-92
2023/03/03 08:45:22;;;;;;;;;;;30.00;45.00;;;;;;1844822;76;20156;-91
2023/03/03 08:47:54;;;;;;;;;;;30.00;47.50;;;;;;1839665;76;20406;-91
2023/03/03 08:50:38;;;;;;;;;;;30.10;46.00;;;;;;1871058;77;20114;-91
2023/03/03 08:53:11;;;;;;;;;;;30.10;45.40;;;;;;1851353;76;20130;-91
2023/03/03 08:55:47;;;;;;;;;;;30.00;45.40;;;;;;1865155;77;20133;-92
2023/03/03 09:01:24;;;;;;;;;;;30.00;44.80;;;;;;1856496;76;20117;-92
2023/03/03 09:03:56;;;;;;;;;;;30.00;45.50;;;;;;1840292;77;20171;-91
2023/03/03 09:06:32;;;;;;;;;;;30.00;45.40;;;;;;1847482;76;20201;-91
2023/03/03 09:09:05;;;;;;;;;;;30.00;45.20;;;;;;1853218;75;20444;-92
2023/03/03 09:11:38;;;;;;;;;;;30.00;45.90;;;;;;1839030;77;20136;-92
2023/03/03 09:14:20;;;;;;;;;;;30.00;46.40;;;;;;1844460;76;20615;-90
2023/03/03 09:17:02;;;;;;;;;;;30.00;46.90;;;;;;1832341;77;20124;-90
2023/03/03 09:19:36;;;;;;;;;;;30.00;46.90;;;;;;1853583;77;20449;-93
2023/03/03 09:22:51;;;;;;;;;;;29.90;47.30;;;;;;1837987;77;20207;-92
2023/03/03 09:25:30;;;;;;;;;;;30.00;47.40;;;;;;1831179;77;20120;-91
2023/03/03 09:28:24;;;;;;;;;;;29.80;46.50;;;;;;1834141;76;20083;-91
2023/03/03 09:31:40;;;;;;;;;;;29.80;45.90;;;;;;1828149;77;20131;-92
2023/03/03 09:34:39;;;;;;;;;;;29.80;47.30;;;;;;1848364;77;20164;-93
2023/03/03 09:37:33;;;;;;;;;;;29.80;47.10;;;;;;1774762;78;20151;-93
2023/03/03 09:40:14;;;;;;;;;;;29.80;46.60;;;;;;1787672;80;20179;-92
2023/03/03 09:43:06;;;;;;;;;;;29.80;47.70;;;;;;1828290;77;20163;-93
2023/03/03 09:48:45;;;;;;;;;;;29.70;47.90;;;;;;1837741;77;20763;-92
2023/03/03 10:06:46;;;;;;;;;;;29.50;47.30;;;;;;1911403;75;20172;-92
2023/03/03 10:12:32;;;;;;;;;;;29.50;48.30;;;;;;1879977;75;20226;-89
2023/03/03 10:18:23;;;;;;;;;;;29.40;48.60;;;;;;1881301;74;20269;-89
2023/03/03 10:21:28;;;;;;;;;;;29.40;48.70;;;;;;1894810;74;20131;-87
2023/03/03 10:24:13;;;;;;;;;;;29.30;48.70;;;;;;1878632;74;20267;-91
2023/03/03 10:26:53;;;;;;;;;;;29.30;49.00;;;;;;1874221;75;20125;-91
2023/03/03 10:29:47;;;;;;;;;;;29.30;48.80;;;;;;1880583;74;20652;-88
2023/03/03 10:32:38;;;;;;;;;;;29.20;48.80;;;;;;1810925;78;20182;-92
2023/03/03 10:35:05;;;;;;;;;;;29.20;49.10;;;;;;1803545;78;20133;-88
2023/03/03 10:37:54;;;;;;;;;;;29.20;49.10;;;;;;1805655;78;20130;-90
2023/03/03 10:40:27;;;;;;;;;;;29.20;49.10;;;;;;1809250;78;20168;-90
2023/03/03 10:43:44;;;;;;;;;;;29.10;49.40;;;;;;1832998;78;20124;-94
2023/03/03 10:50:07;;;;;;;;;;;29.10;49.80;;;;;;1807483;78;20137;-92
2023/03/03 10:52:02;;;;;;;;;;;29.00;50.00;;;;;;1802789;78;20205;-91
2023/03/03 10:55:09;;;;;;;;;;;29.00;50.00;;;;;;1805356;80;20122;-89
2023/03/03 10:57:51;;;;;;;;;;;29.00;49.80;;;;;;1806773;80;20125;-92
2023/03/03 11:00:26;;;;;;;;;;;28.90;49.90;;;;;;1831848;78;20136;-87
2023/03/03 11:02:58;;;;;;;;;;;28.90;50.20;;;;;;1829512;78;20572;-88
2023/03/03 11:05:32;;;;;;;;;;;28.90;50.10;;;;;;1831130;78;20218;-92
2023/03/03 11:08:03;;;;;;;;;;;28.80;50.40;;;;;;1835088;78;20163;-95
2023/03/03 11:10:36;;;;;;;;;;;28.80;50.50;;;;;;1835829;77;20131;-96
2023/03/03 11:13:23;;;;;;;;;;;28.80;51.30;;;;;;1834709;78;20116;-95
2023/03/03 11:16:13;;;;;;;;;;;28.80;50.80;;;;;;1862048;76;20118;-96
2023/03/03 11:19:01;;;;;;;;;;;28.70;50.80;;;;;;1864133;77;20119;-96
2023/03/03 11:21:34;;;;;;;;;;;28.70;51.00;;;;;;1833235;78;20149;-96
2023/03/03 11:24:14;;;;;;;;;;;28.70;51.20;;;;;;1833425;78;20132;-96
2023/03/03 11:27:08;;;;;;;;;;;28.70;51.30;;;;;;1832650;77;20120;-96
2023/03/03 11:29:45;;;;;;;;;;;28.70;52.20;;;;;;1832985;78;20109;-95
2023/03/03 11:32:35;;;;;;;;;;;28.60;51.50;;;;;;1850384;77;20116;-95
2023/03/03 11:35:16;;;;;;;;;;;28.60;51.70;;;;;;1863590;77;20166;-96
2023/03/03 11:41:16;;;;;;;;;;;28.50;52.00;;;;;;1861779;77;20413;-95
2023/03/03 11:44:04;;;;;;;;;;;28.50;52.10;;;;;;1862657;75;20135;-95
2023/03/03 11:49:52;;;;;;;;;;;28.50;52.40;;;;;;1831004;77;20129;-94
2023/03/03 11:52:42;;;;;;;;;;;28.40;52.50;;;;;;1846087;77;20163;-94
2023/03/03 11:59:05;;;;;;;;;;;28.40;52.70;;;;;;1828339;78;20120;-95
2023/03/03 12:01:37;;;;;;;;;;;28.30;52.90;;;;;;1832099;78;20132;-95
2023/03/03 12:04:23;;;;;;;;;;;28.30;53.00;;;;;;1847039;77;20265;-93
2023/03/03 12:07:10;;;;;;;;;;;28.30;53.10;;;;;;1832635;78;20128;-94
2023/03/03 12:09:57;;;;;;;;;;;28.30;53.20;;;;;;1810163;78;20145;-96
2023/03/03 12:12:40;;;;;;;;;;;28.20;53.30;;;;;;1854296;77;20204;-95
2023/03/03 12:15:21;;;;;;;;;;;28.20;53.40;;;;;;1860847;76;20222;-94
2023/03/03 12:20:35;;;;;;;;;;;28.20;53.50;;;;;;1824050;78;20121;-94
2023/03/03 12:23:14;;;;;;;;;;;28.20;53.70;;;;;;1831567;77;20113;-95
2023/03/03 12:25:47;;;;;;;;;;;28.10;53.80;;;;;;1834690;77;20105;-95
2023/03/03 12:28:27;;;;;;;;;;;28.10;53.90;;;;;;1833266;76;20101;-91
2023/03/03 12:31:02;;;;;;;;;;;28.10;54.00;;;;;;1830063;73;20225;-92
2023/03/03 12:33:59;;;;;;;;;;;28.10;54.10;;;;;;1858198;73;20077;-93
2023/03/03 12:37:04;;;;;;;;;;;28.00;54.20;;;;;;1855080;75;20159;-95
2023/03/03 12:39:47;;;;;;;;;;;28.00;54.20;;;;;;1864551;74;20129;-95
2023/03/03 12:42:39;;;;;;;;;;;28.00;54.30;;;;;;1839508;75;20202;-92
2023/03/03 12:45:15;;;;;;;;;;;27.90;54.30;;;;;;1877869;75;20142;-94
2023/03/03 12:48:03;;;;;;;;;;;27.90;54.30;;;;;;1876301;75;20106;-93
2023/03/03 12:50:57;;;;;;;;;;;27.90;54.40;;;;;;1876370;75;20098;-94
2023/03/03 12:53:51;;;;;;;;;;;27.90;54.60;;;;;;1876839;76;20085;-93
2023/03/03 12:56:40;;;;;;;;;;;27.80;54.70;;;;;;1894723;76;20081;-93
2023/03/03 13:05:10;;;;;;;;;;;27.80;54.80;;;;;;1882532;74;20320;-92
2023/03/03 13:10:21;;;;;;;;;;;27.80;55.10;;;;;;1928110;72;20118;-94
2023/03/03 13:13:17;;;;;;;;;;;27.70;55.00;;;;;;1928304;73;20141;-92
2023/03/03 13:15:52;;;;;;;;;;;27.70;55.00;;;;;;1892780;74;20096;-93
2023/03/03 13:18:31;;;;;;;;;;;27.60;55.00;;;;;;1864005;77;20094;-93
2023/03/03 13:21:20;;;;;;;;;;;27.60;55.10;;;;;;1866082;75;20193;-93
2023/03/03 13:24:03;;;;;;;;;;;27.60;55.30;;;;;;1824189;78;20173;-93
2023/03/03 13:26:42;;;;;;;;;;;27.50;55.40;;;;;;1877909;74;20208;-93
2023/03/03 13:29:37;;;;;;;;;;;27.60;55.50;;;;;;1893547;76;20158;-93
2023/03/03 13:38:50;;;;;;;;;;;27.40;55.90;;;;;;1910324;75;20155;-93
2023/03/03 13:41:24;;;;;;;;;;;27.40;56.00;;;;;;1910891;74;20152;-93
2023/03/03 13:43:56;;;;;;;;;;;27.30;56.00;;;;;;1896533;75;20124;-93
2023/03/03 13:46:37;;;;;;;;;;;27.40;56.20;;;;;;1862451;73;20173;-93
2023/03/03 13:49:31;;;;;;;;;;;27.30;56.40;;;;;;1894992;75;20166;-93
2023/03/03 13:52:12;;;;;;;;;;;27.30;56.20;;;;;;1895001;72;20093;-94
2023/03/03 13:55:00;;;;;;;;;;;27.30;56.30;;;;;;1893438;74;20081;-93
2023/03/03 13:57:59;;;;;;;;;;;27.30;56.50;;;;;;1926568;74;20113;-93
2023/03/03 14:00:31;;;;;;;;;;;27.20;56.30;;;;;;1864550;76;20126;-94
2023/03/03 14:06:08;;;;;;;;;;;27.20;56.40;;;;;;1900665;72;20398;-93
2023/03/03 14:08:59;;;;;;;;;;;27.20;56.40;;;;;;1896340;75;20122;-93
2023/03/03 14:11:46;;;;;;;;;;;27.20;56.40;;;;;;1928870;75;20114;-93
2023/03/03 14:15:01;;;;;;;;;;;27.10;56.20;;;;;;1890225;75;20102;-92
2023/03/03 14:20:53;;;;;;;;;;;27.10;56.70;;;;;;1854598;75;20094;-93
2023/03/03 14:24:12;;;;;;;;;;;27.10;57.00;;;;;;1855926;77;20185;-93
2023/03/03 14:27:00;;;;;;;;;;;27.10;57.00;;;;;;1886727;74;20234;-93
2023/03/03 14:33:18;;;;;;;;;;;27.00;57.10;;;;;;1900475;76;20150;-92
2023/03/03 14:35:50;;;;;;;;;;;27.00;57.10;;;;;;1867056;75;20094;-91
2023/03/03 14:44:25;;;;;;;;;;;26.90;57.20;;;;;;1810754;76;20159;-93
2023/03/03 14:47:22;;;;;;;;;;;26.90;57.40;;;;;;1829466;74;20213;-92
2023/03/03 14:50:02;;;;;;;;;;;26.80;57.10;;;;;;1832047;77;20210;-91
2023/03/03 14:52:38;;;;;;;;;;;26.80;57.70;;;;;;1817032;77;20235;-91
2023/03/03 14:55:11;;;;;;;;;;;26.80;58.00;;;;;;1837063;77;20584;-91
2023/03/03 15:04:00;;;;;;;;;;;26.70;58.60;;;;;;1789340;75;20735;-92
2023/03/03 15:06:33;;;;;;;;;;;26.70;58.90;;;;;;1885782;75;20221;-91
2023/03/03 15:09:07;;;;;;;;;;;26.60;59.50;;;;;;1834577;78;20219;-90
2023/03/03 15:11:38;;;;;;;;;;;26.50;60.00;;;;;;1829383;77;20210;-90
2023/03/03 15:14:13;;;;;;;;;;;26.50;60.50;;;;;;1842457;77;20159;-90
2023/03/03 15:16:46;;;;;;;;;;;26.40;61.20;;;;;;1831504;77;20235;-90
2023/03/03 15:19:24;;;;;;;;;;;26.40;61.40;;;;;;1835424;77;20188;-89
2023/03/03 15:21:56;;;;;;;;;;;26.30;61.70;;;;;;1801879;79;20212;-90
2023/03/03 15:24:28;;;;;;;;;;;26.30;62.10;;;;;;1873198;75;20174;-90
2023/03/03 15:27:01;;;;;;;;;;;26.30;62.30;;;;;;1868458;74;20249;-91
2023/03/03 15:29:48;;;;;;;;;;;26.20;62.40;;;;;;1874497;75;20170;-89
2023/03/03 15:32:23;;;;;;;;;;;26.20;62.60;;;;;;1877880;75;20182;-88
2023/03/03 15:35:01;;;;;;;;;;;26.20;62.70;;;;;;1871976;75;20205;-90
2023/03/03 15:37:51;;;;;;;;;;;26.10;62.40;;;;;;1846347;77;20159;-89
2023/03/03 15:40:36;;;;;;;;;;;26.10;62.70;;;;;;1849997;77;20315;-90
2023/03/03 15:43:09;;;;;;;;;;;26.10;62.80;;;;;;1819361;78;20250;-89
2023/03/03 15:45:41;;;;;;;;;;;26.10;62.90;;;;;;1842440;76;20260;-90
2023/03/03 15:48:13;;;;;;;;;;;26.00;62.90;;;;;;1839667;76;20186;-90
2023/03/03 15:50:46;;;;;;;;;;;26.00;63.00;;;;;;1828025;78;20219;-90
2023/03/03 15:53:30;;;;;;;;;;;26.00;63.30;;;;;;1873351;76;20259;-90
2023/03/03 15:56:18;;;;;;;;;;;26.00;63.30;;;;;;1889776;75;20655;-89
2023/03/03 15:58:53;;;;;;;;;;;26.00;63.60;;;;;;1897392;74;20226;-91
2023/03/03 16:01:34;;;;;;;;;;;25.90;63.70;;;;;;1906040;74;20218;-90
2023/03/03 16:04:12;;;;;;;;;;;25.90;63.50;;;;;;1886187;74;20223;-89
2023/03/03 16:06:46;;;;;;;;;;;25.90;63.80;;;;;;1894135;74;20217;-88
2023/03/03 16:09:23;;;;;;;;;;;25.90;63.50;;;;;;1887756;73;20470;-90
2023/03/03 16:12:03;;;;;;;;;;;25.80;63.60;;;;;;1901980;74;20227;-90
2023/03/03 16:14:40;;;;;;;;;;;25.90;63.90;;;;;;1902702;74;20192;-90
2023/03/03 16:17:11;;;;;;;;;;;25.80;63.80;;;;;;1914786;73;20234;-89
2023/03/03 16:19:42;;;;;;;;;;;25.80;63.90;;;;;;1907266;75;20202;-89
2023/03/03 16:22:13;;;;;;;;;;;25.80;63.80;;;;;;1901706;74;20229;-90
2023/03/03 16:24:56;;;;;;;;;;;25.80;63.90;;;;;;1904560;75;20205;-89
2023/03/03 16:27:39;;;;;;;;;;;25.70;64.00;;;;;;1908589;75;20209;-88
2023/03/03 16:30:13;;;;;;;;;;;25.70;64.20;;;;;;1901153;75;20433;-89
2023/03/03 16:32:53;;;;;;;;;;;25.70;64.30;;;;;;1905335;74;20220;-89
2023/03/03 16:35:27;;;;;;;;;;;25.70;64.20;;;;;;1863991;76;20289;-88
2023/03/03 16:38:01;;;;;;;;;;;25.60;64.50;;;;;;1901284;75;20193;-89
2023/03/03 16:40:38;;;;;;;;;;;25.60;64.40;;;;;;1901401;75;20185;-88
2023/03/03 16:43:13;;;;;;;;;;;25.60;64.50;;;;;;1875853;74;20215;-89
2023/03/03 16:45:50;;;;;;;;;;;25.50;64.60;;;;;;1900885;75;20203;-89
2023/03/03 16:48:24;;;;;;;;;;;25.50;64.90;;;;;;1906002;74;20185;-89
2023/03/03 16:50:55;;;;;;;;;;;25.50;64.30;;;;;;1897186;74;20219;-88
2023/03/03 16:53:36;;;;;;;;;;;25.50;64.60;;;;;;1904881;73;20191;-88
2023/03/03 16:56:20;;;;;;;;;;;25.50;65.10;;;;;;1896191;74;20203;-88
2023/03/03 16:59:06;;;;;;;;;;;25.40;65.60;;;;;;1905313;74;20239;-88
2023/03/03 17:01:37;;;;;;;;;;;25.40;65.10;;;;;;1905082;74;20207;-88
2023/03/03 17:04:24;;;;;;;;;;;25.40;65.40;;;;;;1920169;74;20262;-88
2023/03/03 17:06:55;;;;;;;;;;;25.40;65.60;;;;;;1912807;74;20251;-88
2023/03/03 17:09:30;;;;;;;;;;;25.30;65.70;;;;;;1927595;74;20188;-89
2023/03/03 17:12:05;;;;;;;;;;;25.30;65.20;;;;;;1925852;74;20247;-88
2023/03/03 17:14:52;;;;;;;;;;;25.30;65.80;;;;;;1926273;73;20200;-88
2023/03/03 17:17:31;;;;;;;;;;;25.20;66.00;;;;;;1899219;74;20220;-88
2023/03/03 17:20:21;;;;;;;;;;;25.20;66.00;;;;;;1923948;74;20196;-88
2023/03/03 17:22:51;;;;;;;;;;;25.10;66.20;;;;;;1933713;72;20576;-90
2023/03/03 17:25:22;;;;;;;;;;;25.10;66.20;;;;;;1906113;74;20335;-89
2023/03/03 17:28:10;;;;;;;;;;;25.00;66.40;;;;;;1894230;74;20451;-88